Time;durP1;ratioP1;P1;durP2;ratioP2;P2;SDS_P1;SDS_P2;PMS_P1;PMS_P2;Temp;Humidity;BMP_temperature;BMP_pressure;BME280_temperature;BME280_humidity;BME280_pressure;Samples;Min_cycle;Max_cycle;Signal;HPM_P1;HPM_P2
2021/03/30 00:02:20;;;;;;;4.05;3.50;;;9.90;79.00;;;;;;5074240;28;20256;-78
2021/03/30 00:04:46;;;;;;;5.72;3.90;;;9.80;79.20;;;;;;5091413;28;20227;-78
2021/03/30 00:07:13;;;;;;;3.65;3.25;;;9.70;78.90;;;;;;5088165;28;20232;-78
2021/03/30 00:09:39;;;;;;;6.85;4.05;;;9.70;78.50;;;;;;5057933;28;20214;-78
2021/03/30 00:12:06;;;;;;;5.78;4.40;;;9.80;78.10;;;;;;5073961;28;20188;-78
2021/03/30 00:14:32;;;;;;;5.93;3.80;;;9.80;78.20;;;;;;5065070;28;20219;-78
2021/03/30 00:16:59;;;;;;;5.95;4.30;;;9.80;78.80;;;;;;5091813;28;20190;-78
2021/03/30 00:19:25;;;;;;;5.93;3.30;;;9.90;78.80;;;;;;5091311;28;20294;-78
2021/03/30 00:21:52;;;;;;;5.20;2.83;;;9.80;80.60;;;;;;5085298;28;20280;-78
2021/03/30 00:24:18;;;;;;;8.02;4.03;;;9.60;81.60;;;;;;5074195;28;20238;-78
2021/03/30 00:26:44;;;;;;;7.78;4.32;;;9.60;81.40;;;;;;5073981;28;20307;-78
2021/03/30 00:29:11;;;;;;;6.07;3.90;;;9.60;81.20;;;;;;5084176;28;20215;-77
2021/03/30 00:31:37;;;;;;;4.90;3.83;;;9.60;82.10;;;;;;5091888;28;20556;-78
2021/03/30 00:34:04;;;;;;;5.00;3.20;;;9.60;82.10;;;;;;5072918;28;20252;-78
2021/03/30 00:36:31;;;;;;;4.05;3.50;;;9.30;82.60;;;;;;5091574;28;20203;-78
2021/03/30 00:38:58;;;;;;;4.13;3.25;;;9.20;83.60;;;;;;5082954;28;20226;-78
2021/03/30 00:41:24;;;;;;;6.40;3.67;;;9.20;82.30;;;;;;5091531;28;20275;-77
2021/03/30 00:43:50;;;;;;;4.45;3.30;;;9.20;82.80;;;;;;5070343;28;20612;-78
2021/03/30 00:46:18;;;;;;;4.82;3.47;;;9.30;82.60;;;;;;5095443;28;20221;-78
2021/03/30 00:48:48;;;;;;;5.05;3.75;;;9.30;82.80;;;;;;5095259;28;20288;-77
2021/03/30 00:51:18;;;;;;;4.25;3.38;;;9.20;84.50;;;;;;5070957;28;20192;-77
2021/03/30 00:54:05;;;;;;;15.40;4.05;;;9.10;83.30;;;;;;5051912;28;20220;-77
2021/03/30 00:56:51;;;;;;;4.95;3.40;;;9.10;83.10;;;;;;5074073;28;20200;-78
2021/03/30 00:59:19;;;;;;;9.38;4.05;;;9.20;83.50;;;;;;5089826;28;20222;-77
2021/03/30 01:01:46;;;;;;;5.38;3.95;;;9.20;82.90;;;;;;5095756;28;20179;-78
2021/03/30 01:04:13;;;;;;;6.38;4.38;;;9.20;82.70;;;;;;5094753;28;20313;-78
2021/03/30 01:06:40;;;;;;;6.25;3.15;;;9.20;83.10;;;;;;5075352;28;20268;-78
2021/03/30 01:09:24;;;;;;;7.90;3.47;;;9.10;83.70;;;;;;5075914;28;20697;-78
2021/03/30 01:12:15;;;;;;;5.85;3.30;;;9.00;83.50;;;;;;5077727;28;20187;-78
2021/03/30 01:15:03;;;;;;;4.55;3.08;;;8.80;85.70;;;;;;5089063;27;20575;-78
2021/03/30 01:17:45;;;;;;;3.40;3.10;;;8.80;85.80;;;;;;5076696;28;20290;-77
2021/03/30 01:20:40;;;;;;;3.95;3.30;;;8.80;84.90;;;;;;5094466;28;20227;-78
2021/03/30 01:23:35;;;;;;;5.30;3.70;;;8.90;84.50;;;;;;5091521;28;20188;-78
2021/03/30 01:26:17;;;;;;;4.97;4.05;;;8.70;85.00;;;;;;5094732;28;20195;-77
2021/03/30 01:29:02;;;;;;;8.18;4.32;;;8.70;86.40;;;;;;5093318;28;20211;-78
2021/03/30 01:31:31;;;;;;;5.90;3.30;;;8.60;86.60;;;;;;5095051;28;20194;-77
2021/03/30 01:34:00;;;;;;;5.53;4.70;;;8.70;86.10;;;;;;5093929;28;20209;-78
2021/03/30 01:36:29;;;;;;;7.82;4.40;;;8.60;85.70;;;;;;5094587;28;20210;-77
2021/03/30 01:38:56;;;;;;;9.10;5.20;;;8.60;85.60;;;;;;5083081;28;20301;-78
2021/03/30 01:41:24;;;;;;;6.28;4.63;;;8.60;85.80;;;;;;5076449;28;20254;-78
2021/03/30 01:43:51;;;;;;;6.68;4.57;;;8.50;86.90;;;;;;5088219;28;20212;-78
2021/03/30 01:46:19;;;;;;;5.40;4.20;;;8.60;86.80;;;;;;5075142;28;20290;-78
2021/03/30 01:48:46;;;;;;;4.03;3.63;;;8.60;86.50;;;;;;5093970;28;20310;-78
2021/03/30 01:51:14;;;;;;;7.32;4.70;;;8.50;86.70;;;;;;5094141;28;20645;-77
2021/03/30 01:53:42;;;;;;;8.13;4.43;;;8.50;86.70;;;;;;5058348;28;20222;-77
2021/03/30 01:56:11;;;;;;;6.38;3.72;;;8.60;86.60;;;;;;5073000;28;20265;-78
2021/03/30 01:58:39;;;;;;;7.40;4.40;;;8.50;86.80;;;;;;5075141;28;20247;-78
2021/03/30 02:01:07;;;;;;;8.02;4.40;;;8.50;87.40;;;;;;5073353;28;20215;-78
2021/03/30 02:03:35;;;;;;;4.78;4.13;;;8.40;88.90;;;;;;5093484;28;20237;-78
2021/03/30 02:06:05;;;;;;;7.35;4.80;;;8.30;89.90;;;;;;5058570;28;20207;-78
2021/03/30 02:08:33;;;;;;;7.70;4.22;;;8.20;89.80;;;;;;5092023;28;20703;-77
2021/03/30 02:11:00;;;;;;;5.57;3.90;;;8.00;90.50;;;;;;5094788;28;20201;-78
2021/03/30 02:13:40;;;;;;;7.50;5.10;;;7.90;91.10;;;;;;5090584;28;20703;-78
2021/03/30 02:16:27;;;;;;;7.43;4.50;;;8.00;91.60;;;;;;5091290;28;20213;-78
2021/03/30 02:19:14;;;;;;;5.32;4.30;;;8.00;90.90;;;;;;5093449;28;20292;-78
2021/03/30 02:21:50;;;;;;;6.50;4.35;;;8.00;91.40;;;;;;5074121;28;20720;-78
2021/03/30 02:24:19;;;;;;;6.38;5.00;;;8.00;91.60;;;;;;5073150;28;20316;-78
2021/03/30 02:26:48;;;;;;;7.70;4.85;;;7.80;91.40;;;;;;5057322;28;20249;-78
2021/03/30 02:29:19;;;;;;;6.85;5.78;;;7.70;91.40;;;;;;5088881;28;20214;-78
2021/03/30 02:31:49;;;;;;;8.90;5.05;;;7.70;91.80;;;;;;5094411;28;20183;-78
2021/03/30 02:34:17;;;;;;;8.45;5.18;;;7.70;91.80;;;;;;5093313;28;20230;-78
2021/03/30 02:36:46;;;;;;;6.78;5.03;;;8.00;91.40;;;;;;5093220;28;20586;-78
2021/03/30 02:39:14;;;;;;;9.10;5.40;;;7.90;91.10;;;;;;5091339;28;20587;-78
2021/03/30 02:41:42;;;;;;;7.03;5.07;;;7.80;91.70;;;;;;5093617;28;20221;-78
2021/03/30 02:44:11;;;;;;;7.75;5.25;;;7.60;92.90;;;;;;5084214;28;20216;-78
2021/03/30 02:46:39;;;;;;;5.50;4.20;;;7.60;93.60;;;;;;5088930;28;20700;-78
2021/03/30 02:49:09;;;;;;;5.03;4.00;;;7.60;94.00;;;;;;5092865;28;20230;-78
2021/03/30 02:51:37;;;;;;;5.47;4.50;;;7.40;94.40;;;;;;5075310;28;20187;-78
2021/03/30 02:54:06;;;;;;;5.28;4.30;;;7.20;95.10;;;;;;5082192;28;20223;-77
2021/03/30 02:56:33;;;;;;;5.70;4.63;;;7.10;95.20;;;;;;5093330;28;20207;-78
2021/03/30 02:59:00;;;;;;;8.05;4.53;;;7.00;95.20;;;;;;5070554;28;20604;-78
2021/03/30 03:01:26;;;;;;;8.50;4.35;;;7.00;94.70;;;;;;5072961;28;20188;-78
2021/03/30 03:03:53;;;;;;;7.25;4.10;;;7.10;94.80;;;;;;5080271;28;20250;-78
2021/03/30 03:06:20;;;;;;;7.07;3.88;;;7.00;95.30;;;;;;5064649;28;20784;-78
2021/03/30 03:08:48;;;;;;;6.70;4.88;;;6.90;95.90;;;;;;5080245;28;20237;-78
2021/03/30 03:11:16;;;;;;;6.80;5.60;;;6.90;95.60;;;;;;5093094;28;20187;-78
2021/03/30 03:13:46;;;;;;;7.35;5.20;;;6.90;95.50;;;;;;5070289;28;20230;-78
2021/03/30 03:16:13;;;;;;;6.88;4.10;;;6.90;95.40;;;;;;5072872;28;20223;-78
2021/03/30 03:18:43;;;;;;;6.03;5.15;;;6.90;95.10;;;;;;5073663;28;20262;-78
2021/03/30 03:21:10;;;;;;;5.45;4.35;;;6.80;95.70;;;;;;5072601;28;20544;-78
2021/03/30 03:23:41;;;;;;;6.40;4.18;;;6.80;96.10;;;;;;5077536;28;20572;-78
2021/03/30 03:26:11;;;;;;;6.78;4.30;;;6.80;96.10;;;;;;5092246;28;20203;-78
2021/03/30 03:28:42;;;;;;;7.15;3.90;;;6.90;95.70;;;;;;5088010;28;20248;-78
2021/03/30 03:31:13;;;;;;;9.27;5.03;;;6.70;96.10;;;;;;5072922;28;20620;-78
2021/03/30 03:33:40;;;;;;;6.40;4.85;;;6.60;96.10;;;;;;5057595;28;20298;-78
2021/03/30 03:36:12;;;;;;;8.60;5.18;;;6.70;95.70;;;;;;5074165;28;20265;-78
2021/03/30 03:38:43;;;;;;;10.82;5.13;;;6.70;95.70;;;;;;5054121;28;20494;-78
2021/03/30 03:41:15;;;;;;;7.00;4.47;;;6.60;95.90;;;;;;5072696;28;20183;-78
2021/03/30 03:43:45;;;;;;;6.82;4.70;;;6.80;95.90;;;;;;5087337;28;20212;-77
2021/03/30 03:46:15;;;;;;;6.40;5.15;;;6.70;96.00;;;;;;5073352;28;20714;-78
2021/03/30 03:48:42;;;;;;;6.57;4.82;;;6.60;96.00;;;;;;5091338;28;20210;-78
2021/03/30 03:51:10;;;;;;;6.80;4.78;;;6.70;95.60;;;;;;5092380;28;20517;-78
2021/03/30 03:53:37;;;;;;;7.05;4.97;;;6.70;96.00;;;;;;5081866;28;20288;-78
2021/03/30 03:56:07;;;;;;;5.82;4.78;;;6.60;96.10;;;;;;5057690;28;20211;-77
2021/03/30 03:58:42;;;;;;;7.68;6.07;;;6.60;96.30;;;;;;5069328;28;20218;-78
2021/03/30 04:01:14;;;;;;;6.80;4.03;;;6.60;96.30;;;;;;5072272;28;20556;-78
2021/03/30 04:03:50;;;;;;;8.75;5.60;;;6.40;96.00;;;;;;5075617;28;20306;-78
2021/03/30 04:06:20;;;;;;;5.68;4.70;;;6.50;96.20;;;;;;5071116;28;20305;-78
2021/03/30 04:08:50;;;;;;;7.88;5.47;;;6.60;95.70;;;;;;5087354;28;20219;-78
2021/03/30 04:11:19;;;;;;;7.15;4.88;;;6.60;95.80;;;;;;5092127;28;20637;-78
2021/03/30 04:13:47;;;;;;;6.05;4.40;;;6.60;95.50;;;;;;5068312;28;20299;-78
2021/03/30 04:16:14;;;;;;;6.80;3.70;;;6.70;95.80;;;;;;5053993;28;20203;-78
2021/03/30 04:18:41;;;;;;;6.55;4.40;;;6.60;95.90;;;;;;5084554;28;20306;-78
2021/03/30 04:21:30;;;;;;;7.40;4.90;;;6.40;96.70;;;;;;5071490;28;20183;-78
2021/03/30 04:23:58;;;;;;;8.13;5.15;;;6.30;97.00;;;;;;5086809;28;20219;-78
2021/03/30 04:26:26;;;;;;;5.28;4.75;;;6.20;97.30;;;;;;5073507;28;20199;-78
2021/03/30 04:28:52;;;;;;;7.22;4.93;;;6.30;96.90;;;;;;5068087;28;20715;-78
2021/03/30 04:31:18;;;;;;;8.30;4.97;;;6.40;96.40;;;;;;5074129;28;20553;-78
2021/03/30 04:33:45;;;;;;;7.38;4.85;;;6.40;97.40;;;;;;5091595;28;20218;-78
2021/03/30 04:36:11;;;;;;;8.07;4.85;;;6.30;97.60;;;;;;5070064;28;20208;-78
2021/03/30 04:38:38;;;;;;;9.43;4.72;;;6.20;98.10;;;;;;5091183;28;20693;-78
2021/03/30 04:41:07;;;;;;;5.45;4.90;;;6.10;98.00;;;;;;5092018;28;20183;-78
2021/03/30 04:43:34;;;;;;;8.18;5.47;;;6.30;97.40;;;;;;5087366;28;20222;-77
2021/03/30 04:46:01;;;;;;;9.18;5.28;;;6.20;97.30;;;;;;5071540;28;20207;-78
2021/03/30 04:48:27;;;;;;;5.55;4.97;;;6.20;97.40;;;;;;5079860;28;20571;-78
2021/03/30 04:50:54;;;;;;;7.10;4.93;;;6.20;98.10;;;;;;5091890;28;20207;-78
2021/03/30 04:53:25;;;;;;;9.73;4.90;;;6.10;98.10;;;;;;5083050;28;20215;-78
2021/03/30 04:55:51;;;;;;;7.25;5.00;;;6.00;98.40;;;;;;5053361;28;20231;-78
2021/03/30 04:58:19;;;;;;;5.20;4.20;;;6.20;97.70;;;;;;5081251;28;20183;-77
2021/03/30 05:00:47;;;;;;;8.63;5.03;;;6.30;97.20;;;;;;5071457;28;20212;-78
2021/03/30 05:03:13;;;;;;;6.05;4.40;;;6.20;96.40;;;;;;5064225;28;20641;-78
2021/03/30 05:05:40;;;;;;;8.43;6.10;;;6.10;96.60;;;;;;5073376;28;20765;-78
2021/03/30 05:08:10;;;;;;;8.35;5.47;;;6.10;96.50;;;;;;5064507;28;20226;-77
2021/03/30 05:10:36;;;;;;;8.20;5.45;;;6.00;96.40;;;;;;5076597;28;20207;-78
2021/03/30 05:13:02;;;;;;;8.75;5.10;;;6.00;96.30;;;;;;5092374;28;20187;-78
2021/03/30 05:15:29;;;;;;;11.60;4.95;;;6.10;96.40;;;;;;5037528;28;20248;-78
2021/03/30 05:17:55;;;;;;;10.00;5.50;;;6.10;96.10;;;;;;5072172;28;20263;-78
2021/03/30 05:20:22;;;;;;;8.80;5.50;;;6.20;96.00;;;;;;5072741;28;20223;-78
2021/03/30 05:22:48;;;;;;;11.98;4.70;;;6.20;96.00;;;;;;5080634;28;20234;-78
2021/03/30 05:25:15;;;;;;;8.70;5.18;;;6.00;96.60;;;;;;5071535;28;20227;-78
2021/03/30 05:27:42;;;;;;;5.70;4.78;;;5.90;96.80;;;;;;5073560;28;20187;-78
2021/03/30 05:30:13;;;;;;;8.90;4.88;;;5.90;96.50;;;;;;5069822;28;20220;-78
2021/03/30 05:32:39;;;;;;;14.45;5.15;;;6.00;96.60;;;;;;5094987;28;20302;-78
2021/03/30 05:35:11;;;;;;;5.72;4.90;;;6.00;96.30;;;;;;5094562;28;20310;-78
2021/03/30 05:37:43;;;;;;;6.88;4.63;;;6.00;96.30;;;;;;5073594;28;20210;-78
2021/03/30 05:40:15;;;;;;;8.95;5.85;;;6.20;96.00;;;;;;5071300;28;20268;-78
2021/03/30 05:42:42;;;;;;;6.32;4.68;;;6.20;95.50;;;;;;5095225;28;20636;-78
2021/03/30 05:45:11;;;;;;;7.85;3.95;;;6.30;95.50;;;;;;5091588;28;20296;-78
2021/03/30 05:47:38;;;;;;;6.18;4.35;;;6.30;95.80;;;;;;5094496;28;20247;-78
2021/03/30 05:50:12;;;;;;;6.90;4.72;;;6.40;96.50;;;;;;5094546;28;20237;-78
2021/03/30 05:53:05;;;;;;;10.13;5.82;;;6.40;96.80;;;;;;5075276;28;20199;-78
2021/03/30 05:55:34;;;;;;;12.38;5.28;;;6.40;96.30;;;;;;5079289;28;20294;-78
2021/03/30 05:58:03;;;;;;;11.25;5.95;;;6.50;95.90;;;;;;5076568;28;20203;-78
2021/03/30 06:00:33;;;;;;;8.93;4.70;;;6.50;96.10;;;;;;5074934;28;20216;-78
2021/03/30 06:03:04;;;;;;;7.65;5.75;;;6.60;96.20;;;;;;5076400;28;20225;-78
2021/03/30 06:05:31;;;;;;;12.20;6.20;;;6.60;96.60;;;;;;5094385;28;20228;-78
2021/03/30 06:08:02;;;;;;;8.80;6.72;;;6.70;96.40;;;;;;5094486;28;20190;-78
2021/03/30 06:10:31;;;;;;;11.65;5.30;;;6.70;96.40;;;;;;5078688;28;20214;-78
2021/03/30 06:12:58;;;;;;;10.25;5.22;;;6.90;96.00;;;;;;5076415;28;20199;-78
2021/03/30 06:15:33;;;;;;;8.05;4.88;;;7.00;95.60;;;;;;5043360;28;20586;-78
2021/03/30 06:18:00;;;;;;;15.93;6.43;;;7.10;97.40;;;;;;5075828;28;20352;-78
2021/03/30 06:20:30;;;;;;;10.07;5.90;;;7.20;96.10;;;;;;5074975;28;20219;-78
2021/03/30 06:23:00;;;;;;;20.60;6.63;;;7.20;96.70;;;;;;5094056;28;20207;-78
2021/03/30 06:25:43;;;;;;;12.13;6.20;;;7.40;97.60;;;;;;5055587;28;20636;-78
2021/03/30 06:28:16;;;;;;;12.43;6.60;;;7.50;98.70;;;;;;5075458;28;20287;-78
2021/03/30 06:31:15;;;;;;;12.43;5.88;;;7.70;97.90;;;;;;5084006;28;20211;-78
2021/03/30 06:33:56;;;;;;;9.65;6.15;;;7.80;97.90;;;;;;5073305;28;20298;-78
2021/03/30 06:36:24;;;;;;;17.35;6.70;;;7.90;97.50;;;;;;5085233;28;20285;-78
2021/03/30 06:39:02;;;;;;;8.23;4.90;;;8.10;96.30;;;;;;5072774;28;20223;-78
2021/03/30 06:41:40;;;;;;;10.45;6.18;;;8.50;97.40;;;;;;5092147;28;20259;-78
2021/03/30 06:46:50;;;;;;;6.20;5.60;;;8.90;98.60;;;;;;5089700;28;20183;-78
2021/03/30 06:49:18;;;;;;;8.35;5.30;;;9.10;98.50;;;;;;5075347;28;20243;-78
2021/03/30 06:51:45;;;;;;;6.88;5.65;;;9.20;99.20;;;;;;5093182;28;20180;-78
2021/03/30 06:54:12;;;;;;;6.93;5.00;;;9.40;99.90;;;;;;5081196;28;20229;-78
2021/03/30 06:56:56;;;;;;;7.53;6.22;;;9.30;98.60;;;;;;5088582;28;20714;-78
2021/03/30 06:59:24;;;;;;;8.43;6.72;;;9.60;95.90;;;;;;5073265;28;20291;-78
2021/03/30 07:01:53;;;;;;;8.50;6.70;;;9.80;96.50;;;;;;5093003;28;20190;-78
2021/03/30 07:04:20;;;;;;;12.70;5.68;;;10.10;95.00;;;;;;5074635;28;20219;-78
2021/03/30 07:06:52;;;;;;;8.80;6.80;;;10.30;96.20;;;;;;5092709;28;20191;-78
2021/03/30 07:09:23;;;;;;;7.82;6.22;;;10.40;94.80;;;;;;5081381;28;20215;-78
2021/03/30 07:11:52;;;;;;;13.40;7.65;;;10.40;95.30;;;;;;5074688;28;20194;-78
2021/03/30 07:14:22;;;;;;;13.95;6.45;;;10.50;95.10;;;;;;5083133;28;20217;-78
2021/03/30 07:16:50;;;;;;;6.80;5.72;;;10.70;94.70;;;;;;5074573;28;20185;-78
2021/03/30 07:19:24;;;;;;;8.10;5.93;;;10.80;94.30;;;;;;5064304;28;20223;-78
2021/03/30 07:22:00;;;;;;;10.57;6.57;;;10.90;92.60;;;;;;5087884;28;20460;-78
2021/03/30 07:24:38;;;;;;;11.47;6.73;;;11.00;93.80;;;;;;5038500;28;20862;-78
2021/03/30 07:27:08;;;;;;;8.80;6.67;;;11.20;92.20;;;;;;5074696;28;20941;-79
2021/03/30 07:29:42;;;;;;;11.60;6.53;;;11.50;90.70;;;;;;5046698;28;21010;-78
2021/03/30 07:32:24;;;;;;;8.43;6.63;;;11.80;91.50;;;;;;5079935;28;20524;-79
2021/03/30 07:35:06;;;;;;;8.07;6.23;;;12.10;83.40;;;;;;5092359;28;20461;-78
2021/03/30 07:37:49;;;;;;;9.37;7.07;;;12.30;78.20;;;;;;5088674;28;20469;-78
2021/03/30 07:40:18;;;;;;;9.20;6.50;;;12.40;75.70;;;;;;5091681;28;20514;-78
2021/03/30 07:42:47;;;;;;;8.27;6.20;;;12.60;77.00;;;;;;5092783;28;20440;-78
2021/03/30 07:45:17;;;;;;;9.57;7.53;;;12.70;82.70;;;;;;5062964;28;20504;-79
2021/03/30 07:47:44;;;;;;;9.50;7.50;;;12.80;80.60;;;;;;5092813;28;20483;-78
2021/03/30 07:50:11;;;;;;;8.73;6.37;;;13.00;81.60;;;;;;5073716;28;20461;-79
2021/03/30 07:52:45;;;;;;;9.73;7.60;;;13.10;84.90;;;;;;5074409;28;20461;-78
2021/03/30 07:55:18;;;;;;;11.03;6.30;;;13.40;86.60;;;;;;5062181;28;20967;-78
2021/03/30 07:58:13;;;;;;;10.07;6.77;;;13.70;85.10;;;;;;5072221;28;20497;-78
2021/03/30 08:00:46;;;;;;;8.47;6.20;;;13.90;82.10;;;;;;5070776;28;20470;-78
2021/03/30 08:03:14;;;;;;;7.00;5.90;;;14.10;76.70;;;;;;5071817;28;20497;-78
2021/03/30 08:05:43;;;;;;;11.43;7.07;;;14.30;78.00;;;;;;5071769;28;20446;-78
2021/03/30 08:08:23;;;;;;;8.60;6.50;;;14.50;77.50;;;;;;5080010;28;20470;-78
2021/03/30 08:10:54;;;;;;;9.53;7.60;;;14.70;75.90;;;;;;5061657;28;20439;-78
2021/03/30 08:13:35;;;;;;;8.33;7.20;;;15.10;77.30;;;;;;5055205;28;20425;-79
2021/03/30 08:16:09;;;;;;;9.90;7.83;;;15.30;75.20;;;;;;5087224;28;20977;-79
2021/03/30 08:18:39;;;;;;;10.67;7.10;;;15.50;73.30;;;;;;5088503;28;20458;-79
2021/03/30 08:21:10;;;;;;;10.57;7.00;;;15.60;73.10;;;;;;5074264;28;20467;-79
2021/03/30 08:23:52;;;;;;;8.87;6.97;;;15.70;71.70;;;;;;5085564;28;20499;-78
2021/03/30 08:26:30;;;;;;;8.87;6.30;;;15.70;71.20;;;;;;5092047;28;20989;-78
2021/03/30 08:28:56;;;;;;;9.43;6.93;;;15.80;73.20;;;;;;5055986;28;20488;-79
2021/03/30 08:31:31;;;;;;;11.70;7.17;;;15.90;71.20;;;;;;5073983;28;20791;-79
2021/03/30 08:33:59;;;;;;;9.10;6.00;;;16.00;70.30;;;;;;5073429;28;20552;-79
2021/03/30 08:36:35;;;;;;;9.90;5.90;;;16.40;70.30;;;;;;5091763;28;20457;-78
2021/03/30 08:39:09;;;;;;;8.70;5.90;;;16.50;69.50;;;;;;5063583;28;20605;-79
2021/03/30 08:41:41;;;;;;;10.13;7.13;;;16.40;70.00;;;;;;5086397;28;20461;-79
2021/03/30 08:44:20;;;;;;;11.10;7.47;;;16.50;71.00;;;;;;5079502;28;20913;-79
2021/03/30 08:46:53;;;;;;;8.77;7.30;;;16.60;68.90;;;;;;5073846;28;20425;-79
2021/03/30 08:49:27;;;;;;;8.90;6.70;;;16.80;70.60;;;;;;5092869;28;20484;-79
2021/03/30 08:52:09;;;;;;;9.87;7.03;;;17.10;71.20;;;;;;5075986;28;20473;-79
2021/03/30 08:54:42;;;;;;;8.90;7.37;;;17.40;68.90;;;;;;5084831;28;20468;-79
2021/03/30 08:57:12;;;;;;;9.40;7.30;;;17.50;67.90;;;;;;5058021;28;20442;-79
2021/03/30 08:59:40;;;;;;;10.70;7.83;;;17.70;67.40;;;;;;5090935;28;20895;-79
2021/03/30 09:02:11;;;;;;;13.50;8.83;;;17.70;67.80;;;;;;5094407;28;20413;-79
2021/03/30 09:04:40;;;;;;;8.77;7.90;;;18.00;65.20;;;;;;5092873;28;20507;-79
2021/03/30 09:07:07;;;;;;;11.83;7.93;;;18.30;61.20;;;;;;5094501;28;20459;-79
2021/03/30 09:09:35;;;;;;;10.87;8.80;;;18.40;62.30;;;;;;5094481;28;20514;-77
2021/03/30 09:12:20;;;;;;;13.13;8.40;;;18.70;59.30;;;;;;5078999;28;20448;-77
2021/03/30 09:15:00;;;;;;;11.27;8.10;;;18.60;55.60;;;;;;5087833;28;20508;-79
2021/03/30 09:17:28;;;;;;;12.90;8.97;;;18.70;64.80;;;;;;5095237;28;20854;-79
2021/03/30 09:20:05;;;;;;;11.97;8.20;;;18.70;60.10;;;;;;5094848;28;20834;-79
2021/03/30 09:22:34;;;;;;;12.13;8.77;;;18.80;59.30;;;;;;5075049;28;20447;-79
2021/03/30 09:27:59;;;;;;;12.03;9.20;;;19.00;57.10;;;;;;5092095;28;20876;-79
2021/03/30 09:30:26;;;;;;;16.50;9.93;;;19.20;52.50;;;;;;5072672;28;20523;-79
2021/03/30 09:32:55;;;;;;;12.90;8.70;;;19.20;53.50;;;;;;5082966;28;21005;-79
2021/03/30 09:35:25;;;;;;;10.90;8.90;;;19.10;51.10;;;;;;5076398;28;20465;-79
2021/03/30 09:38:03;;;;;;;12.43;8.30;;;19.00;55.60;;;;;;5075246;28;20932;-79
2021/03/30 09:40:38;;;;;;;18.57;8.50;;;19.20;50.30;;;;;;5076483;28;20555;-79
2021/03/30 09:43:06;;;;;;;10.40;8.43;;;19.10;53.70;;;;;;5094501;28;20448;-79
2021/03/30 09:45:35;;;;;;;12.33;8.43;;;19.10;49.80;;;;;;5088116;28;21081;-79
2021/03/30 09:48:16;;;;;;;11.60;7.83;;;19.30;51.00;;;;;;5076427;28;20546;-79
2021/03/30 09:50:48;;;;;;;12.67;8.40;;;19.20;51.40;;;;;;5086862;28;21023;-79
2021/03/30 09:53:15;;;;;;;10.20;7.97;;;19.00;52.00;;;;;;5091104;28;20986;-79
2021/03/30 09:55:46;;;;;;;11.90;7.60;;;19.10;53.90;;;;;;5093946;28;20474;-77
2021/03/30 09:58:17;;;;;;;9.67;7.23;;;19.30;55.80;;;;;;5074390;28;20493;-78
2021/03/30 10:00:53;;;;;;;12.27;8.40;;;19.50;54.90;;;;;;5093279;28;20544;-79
2021/03/30 10:03:22;;;;;;;12.90;6.90;;;19.70;54.50;;;;;;5091851;28;20429;-78
2021/03/30 10:05:48;;;;;;;9.47;6.90;;;19.80;48.80;;;;;;5093548;28;20473;-79
2021/03/30 10:08:29;;;;;;;8.37;6.10;;;19.80;52.20;;;;;;5093564;28;20458;-79
2021/03/30 10:10:57;;;;;;;7.10;6.23;;;19.90;46.40;;;;;;5074200;28;20422;-79
2021/03/30 10:13:33;;;;;;;7.80;5.40;;;20.00;46.30;;;;;;5085843;28;20842;-79
2021/03/30 10:16:06;;;;;;;8.77;5.50;;;20.00;48.50;;;;;;5058534;28;20556;-79
2021/03/30 10:18:34;;;;;;;8.57;5.70;;;20.10;53.70;;;;;;5094315;28;20452;-79
2021/03/30 10:21:18;;;;;;;8.00;5.80;;;20.10;48.70;;;;;;5081565;28;20986;-79
2021/03/30 10:23:50;;;;;;;7.87;6.00;;;20.20;48.10;;;;;;5095470;28;20891;-78
2021/03/30 10:26:26;;;;;;;7.20;5.90;;;20.40;48.20;;;;;;5096349;28;20445;-79
2021/03/30 10:29:04;;;;;;;7.50;5.90;;;20.40;48.90;;;;;;5072290;28;20878;-78
2021/03/30 10:34:23;;;;;;;5.30;4.80;;;20.40;45.20;;;;;;5095166;28;20888;-78
2021/03/30 10:36:52;;;;;;;7.60;5.00;;;20.30;44.70;;;;;;5069136;28;20521;-79
2021/03/30 10:39:31;;;;;;;6.27;4.93;;;20.20;44.50;;;;;;5068856;28;21022;-79
2021/03/30 10:42:02;;;;;;;6.43;5.67;;;20.00;44.20;;;;;;5091104;28;20429;-79
2021/03/30 10:44:36;;;;;;;7.97;5.80;;;20.00;48.00;;;;;;5082129;28;20985;-78
2021/03/30 10:47:24;;;;;;;7.13;4.87;;;20.00;46.30;;;;;;5075196;28;20412;-79
2021/03/30 10:49:54;;;;;;;7.80;5.97;;;19.80;45.10;;;;;;5081318;28;20462;-78
2021/03/30 10:52:26;;;;;;;5.93;5.43;;;19.70;45.70;;;;;;5076289;28;20425;-79
2021/03/30 10:54:56;;;;;;;6.03;4.27;;;19.70;48.60;;;;;;5072698;28;20466;-79
2021/03/30 10:57:25;;;;;;;5.67;4.50;;;19.80;47.70;;;;;;5073051;28;20518;-78
2021/03/30 10:59:51;;;;;;;6.30;4.70;;;19.80;43.70;;;;;;5076901;28;20490;-79
2021/03/30 11:02:19;;;;;;;6.60;4.43;;;20.00;45.60;;;;;;5077381;28;20429;-79
2021/03/30 11:04:46;;;;;;;5.90;4.93;;;20.00;45.40;;;;;;5092477;28;20501;-79
2021/03/30 11:07:12;;;;;;;5.27;4.47;;;20.10;44.40;;;;;;5091166;28;20999;-79
2021/03/30 11:09:39;;;;;;;10.17;5.00;;;20.00;44.20;;;;;;5092317;28;20492;-79
2021/03/30 11:12:07;;;;;;;5.83;5.13;;;20.10;44.90;;;;;;5075171;28;21051;-79
2021/03/30 11:14:33;;;;;;;6.13;5.47;;;20.20;48.00;;;;;;5086525;28;20991;-79
2021/03/30 11:16:59;;;;;;;6.27;5.10;;;20.10;49.10;;;;;;5074975;28;20428;-79
2021/03/30 11:19:28;;;;;;;6.77;4.50;;;20.30;45.30;;;;;;5092219;28;20470;-79
2021/03/30 11:21:55;;;;;;;8.53;4.57;;;20.20;41.80;;;;;;5092993;28;20748;-79
2021/03/30 11:24:23;;;;;;;5.80;5.10;;;20.20;41.20;;;;;;5091102;28;20465;-79
2021/03/30 11:26:52;;;;;;;5.97;5.20;;;20.20;44.50;;;;;;5092626;28;20426;-79
2021/03/30 11:39:36;;;;;;;4.80;4.00;;;20.60;41.30;;;;;;5071965;28;20469;-79
2021/03/30 11:42:04;;;;;;;6.73;4.90;;;20.60;42.40;;;;;;5056171;28;20422;-79
2021/03/30 11:44:31;;;;;;;5.93;4.13;;;20.50;40.80;;;;;;5091067;28;20479;-79
2021/03/30 11:46:59;;;;;;;4.60;4.20;;;20.50;40.50;;;;;;5091972;28;20427;-79
2021/03/30 11:49:26;;;;;;;6.03;5.03;;;20.60;38.80;;;;;;5089414;28;20860;-78
2021/03/30 11:51:53;;;;;;;7.83;5.70;;;20.70;44.00;;;;;;5091981;28;20449;-79
2021/03/30 11:54:20;;;;;;;6.87;4.67;;;20.80;42.60;;;;;;5090223;28;20469;-79
2021/03/30 11:56:46;;;;;;;7.40;4.80;;;20.90;41.80;;;;;;5073967;28;20493;-79
2021/03/30 11:59:13;;;;;;;6.10;4.23;;;20.90;42.40;;;;;;5070582;28;20488;-79
2021/03/30 12:01:40;;;;;;;7.23;4.17;;;21.00;41.40;;;;;;5075371;28;20838;-79
2021/03/30 12:04:06;;;;;;;5.93;4.03;;;21.00;38.80;;;;;;5077119;28;20500;-79
2021/03/30 12:06:33;;;;;;;7.13;4.07;;;21.00;38.60;;;;;;5094366;28;20569;-79
2021/03/30 12:09:00;;;;;;;5.10;3.80;;;21.00;38.70;;;;;;5062788;28;20458;-79
2021/03/30 12:11:31;;;;;;;6.40;4.27;;;21.00;38.60;;;;;;5073465;28;20981;-79
2021/03/30 12:13:58;;;;;;;3.80;3.50;;;21.00;35.60;;;;;;5082323;28;20474;-78
2021/03/30 12:16:25;;;;;;;5.40;3.80;;;21.10;38.70;;;;;;5067123;28;20457;-78
2021/03/30 12:18:52;;;;;;;6.80;4.90;;;21.30;36.20;;;;;;5092372;28;20827;-79
2021/03/30 12:21:23;;;;;;;6.97;3.90;;;21.30;37.90;;;;;;5093910;28;20468;-79
2021/03/30 12:23:52;;;;;;;5.93;3.43;;;21.30;38.60;;;;;;5074641;28;20491;-78
2021/03/30 12:26:19;;;;;;;6.27;3.83;;;21.30;40.00;;;;;;5093737;28;20467;-79
2021/03/30 12:28:45;;;;;;;6.00;3.40;;;21.40;41.90;;;;;;5087293;28;20929;-78
2021/03/30 12:31:23;;;;;;;3.83;3.43;;;21.40;37.00;;;;;;5070407;28;20430;-78
2021/03/30 12:33:49;;;;;;;6.23;4.20;;;21.30;36.20;;;;;;5070092;28;20461;-79
2021/03/30 12:36:15;;;;;;;4.60;4.07;;;21.50;39.90;;;;;;5071486;28;20533;-79
2021/03/30 12:38:42;;;;;;;5.93;4.40;;;21.40;38.00;;;;;;5082772;28;20448;-79
2021/03/30 12:41:08;;;;;;;4.23;3.83;;;21.50;37.30;;;;;;5077960;28;20552;-79
2021/03/30 12:43:35;;;;;;;6.43;4.13;;;21.40;40.50;;;;;;5092222;28;20531;-78
2021/03/30 12:46:01;;;;;;;5.53;4.40;;;21.50;36.40;;;;;;5075550;28;20964;-78
2021/03/30 12:48:30;;;;;;;5.97;4.00;;;21.50;36.30;;;;;;5090776;28;20489;-78
2021/03/30 12:50:56;;;;;;;4.27;3.80;;;21.50;36.30;;;;;;5095691;28;20469;-78
2021/03/30 12:53:23;;;;;;;8.17;5.03;;;21.60;38.10;;;;;;5065553;28;20777;-79
2021/03/30 12:55:50;;;;;;;5.63;4.43;;;21.60;38.00;;;;;;5080956;28;20812;-78
2021/03/30 12:58:17;;;;;;;7.50;5.00;;;21.70;36.50;;;;;;5094088;28;20422;-79
2021/03/30 13:00:44;;;;;;;7.57;4.73;;;21.80;37.20;;;;;;5079531;28;20491;-78
2021/03/30 13:03:27;;;;;;;6.20;4.33;;;21.80;36.70;;;;;;5077007;28;20461;-78
2021/03/30 13:05:55;;;;;;;7.07;4.00;;;21.80;36.70;;;;;;5074321;28;20500;-74
2021/03/30 13:08:22;;;;;;;5.43;4.60;;;21.80;38.60;;;;;;5083586;28;20445;-75
2021/03/30 13:10:49;;;;;;;5.57;4.37;;;21.80;36.60;;;;;;5095219;28;20461;-75
2021/03/30 13:13:15;;;;;;;9.10;4.30;;;21.80;35.30;;;;;;5089827;28;20479;-74
2021/03/30 13:15:44;;;;;;;5.33;4.83;;;21.90;35.60;;;;;;5074593;28;20450;-75
2021/03/30 13:18:11;;;;;;;6.90;4.67;;;21.80;36.60;;;;;;5072969;28;20986;-75
2021/03/30 13:20:37;;;;;;;4.13;3.63;;;21.80;39.20;;;;;;5084519;28;20465;-74
2021/03/30 13:23:04;;;;;;;7.83;3.97;;;22.00;35.10;;;;;;5088467;28;20434;-75
2021/03/30 13:25:33;;;;;;;7.77;3.87;;;22.00;35.60;;;;;;5064553;28;20449;-75
2021/03/30 13:28:08;;;;;;;5.80;4.43;;;22.10;36.00;;;;;;5077189;28;20771;-75